Terminal Aerodrome Forecast
Issued by NWS Amarillo, TX

Home | Current Version | Previous Version | Text Only | Print | Product List | Glossary On
Versions: 1 2 3 4 5 6 7 8 9 10 11 12 13 14
000
FTUS44 KAMA 282320
TAFGUY
TAF
KGUY 282320Z 2900/2924 16010KT P6SM SCT250
      TEMPO 2901/2904 VRB30G40KT 5SM TSRA BKN020CB
     FM291000 36010KT P6SM SCT150 BKN250
     FM292000 07010KT P6SM SCT080=

USA.gov is the U.S. government's official web portal to all federal, state and local government web resources and services.